createdAt,value
2023-02-16T00:00:19.712Z,64.40
2023-02-16T00:03:14.120Z,56.90
2023-02-16T00:05:42.364Z,63.30
2023-02-16T00:08:10.220Z,60.60
2023-02-16T00:10:39.479Z,66.00
2023-02-16T00:13:47.153Z,63.30
2023-02-16T00:16:24.650Z,64.30
2023-02-16T00:18:53.334Z,64.60
2023-02-16T00:21:22.143Z,61.00
2023-02-16T00:23:50.299Z,63.70
2023-02-16T00:26:24.601Z,61.50
2023-02-16T00:28:54.896Z,66.00
2023-02-16T00:31:27.880Z,63.20
2023-02-16T00:33:56.612Z,58.00
2023-02-16T00:36:25.297Z,68.30
2023-02-16T00:38:53.275Z,63.70
2023-02-16T00:41:44.136Z,63.10
2023-02-16T00:44:20.112Z,63.60
2023-02-16T00:46:48.309Z,65.40
2023-02-16T00:49:18.497Z,62.60
2023-02-16T00:51:46.897Z,72.10
2023-02-16T00:54:15.385Z,64.70
2023-02-16T00:56:44.046Z,67.70
2023-02-16T00:59:19.686Z,64.00
2023-02-16T01:01:48.073Z,63.50
2023-02-16T01:04:23.589Z,67.80
2023-02-16T01:07:10.493Z,73.90
2023-02-16T01:09:57.066Z,66.30
2023-02-16T01:12:25.173Z,71.00
2023-02-16T01:14:55.659Z,71.90
2023-02-16T01:17:26.254Z,72.30
2023-02-16T01:19:57.041Z,73.40
2023-02-16T01:22:24.869Z,75.20
2023-02-16T01:24:52.900Z,77.10
2023-02-16T01:27:20.839Z,76.60
2023-02-16T01:29:48.589Z,75.30
2023-02-16T01:32:17.247Z,72.00
2023-02-16T01:34:45.234Z,66.10
2023-02-16T01:37:15.855Z,64.80
2023-02-16T01:39:44.898Z,66.80
2023-02-16T01:42:15.496Z,68.30
2023-02-16T01:44:49.778Z,66.50
2023-02-16T01:47:26.256Z,69.10
2023-02-16T01:52:33.092Z,59.70
2023-02-16T01:55:14.024Z,65.60
2023-02-16T01:58:31.425Z,67.40
2023-02-16T02:00:59.172Z,60.90
2023-02-16T02:03:52.660Z,67.00
2023-02-16T02:06:28.009Z,63.50
2023-02-16T02:09:03.601Z,63.10
2023-02-16T02:11:54.061Z,69.00
2023-02-16T02:14:37.998Z,68.80
2023-02-16T02:17:11.250Z,68.70
2023-02-16T02:19:56.605Z,68.60
2023-02-16T02:23:23.454Z,65.50
2023-02-16T02:26:19.358Z,64.40
2023-02-16T02:28:50.724Z,62.80
2023-02-16T02:31:37.929Z,65.60
2023-02-16T02:34:21.304Z,64.10
2023-02-16T02:37:20.578Z,70.50
2023-02-16T02:39:54.681Z,65.70
2023-02-16T02:42:51.166Z,60.50
2023-02-16T02:45:32.309Z,60.00
2023-02-16T02:48:00.321Z,63.60
2023-02-16T02:50:37.446Z,71.20
2023-02-16T02:53:12.379Z,63.20
2023-02-16T02:56:05.668Z,60.60
2023-02-16T02:58:55.386Z,60.70
2023-02-16T03:01:24.692Z,61.20
2023-02-16T03:03:56.182Z,64.50
2023-02-16T03:06:27.791Z,66.80
2023-02-16T03:09:01.227Z,68.20
2023-02-16T03:11:48.636Z,61.20
2023-02-16T03:14:30.128Z,61.90
2023-02-16T03:17:19.721Z,63.60
2023-02-16T03:20:09.792Z,64.50
2023-02-16T03:22:58.316Z,62.20
2023-02-16T03:25:50.070Z,67.60
2023-02-16T03:28:40.300Z,61.70
2023-02-16T03:31:12.946Z,64.00
2023-02-16T03:33:41.814Z,63.80
2023-02-16T03:36:10.159Z,64.50
2023-02-16T03:38:39.544Z,65.10
2023-02-16T03:41:07.353Z,66.70
2023-02-16T03:43:35.272Z,66.90
2023-02-16T03:46:03.399Z,64.30
2023-02-16T03:48:31.695Z,64.30
2023-02-16T03:50:59.527Z,67.40
2023-02-16T03:53:27.416Z,67.00
2023-02-16T03:55:55.353Z,64.40
2023-02-16T03:58:25.302Z,65.90
2023-02-16T04:00:53.581Z,70.70
2023-02-16T04:03:21.644Z,74.40
2023-02-16T04:05:49.535Z,80.70
2023-02-16T04:08:17.690Z,78.10
2023-02-16T04:10:45.658Z,81.60
2023-02-16T04:13:13.835Z,79.30
2023-02-16T04:15:42.338Z,72.80
2023-02-16T04:18:10.278Z,79.20
2023-02-16T04:20:38.365Z,75.50
2023-02-16T04:23:07.019Z,71.10
2023-02-16T04:25:35.108Z,72.70
2023-02-16T04:28:03.036Z,68.20
2023-02-16T04:30:32.459Z,69.20
2023-02-16T04:33:00.669Z,65.90
2023-02-16T04:35:28.620Z,69.40
2023-02-16T04:37:56.565Z,69.80
2023-02-16T04:40:24.386Z,67.10
2023-02-16T04:42:52.419Z,69.20
2023-02-16T04:45:20.685Z,65.90
2023-02-16T04:47:48.782Z,67.00
2023-02-16T04:50:16.821Z,71.60
2023-02-16T04:52:45.129Z,68.50
2023-02-16T04:55:12.904Z,70.70
2023-02-16T04:57:40.803Z,70.00
2023-02-16T05:00:11.844Z,69.70
2023-02-16T05:02:40.065Z,67.70
2023-02-16T05:05:08.403Z,77.20
2023-02-16T05:07:37.143Z,75.40
2023-02-16T05:10:06.544Z,81.80
2023-02-16T05:12:53.455Z,74.00
2023-02-16T05:15:21.717Z,78.00
2023-02-16T05:17:49.704Z,76.40
2023-02-16T05:20:18.273Z,72.50
2023-02-16T05:22:46.459Z,80.10
2023-02-16T05:25:14.360Z,77.00
2023-02-16T05:27:42.202Z,66.20
2023-02-16T05:30:11.160Z,75.10
2023-02-16T05:32:39.037Z,77.40
2023-02-16T05:35:06.984Z,68.70
2023-02-16T05:37:34.899Z,70.10
2023-02-16T05:40:02.760Z,66.10
2023-02-16T05:42:30.924Z,66.30
2023-02-16T05:44:58.878Z,70.30
2023-02-16T05:47:26.667Z,67.50
2023-02-16T05:49:54.609Z,69.70
2023-02-16T05:52:22.620Z,69.70
2023-02-16T05:54:50.447Z,73.20
2023-02-16T05:57:18.460Z,66.70
2023-02-16T05:59:46.529Z,66.80
2023-02-16T06:02:14.922Z,68.30
2023-02-16T06:04:42.998Z,68.70
2023-02-16T06:07:12.049Z,65.50
2023-02-16T06:09:41.741Z,66.90
2023-02-16T06:12:09.572Z,67.60
2023-02-16T06:14:37.488Z,69.50
2023-02-16T06:17:05.451Z,65.80
2023-02-16T06:19:33.422Z,68.10
2023-02-16T06:22:01.300Z,66.50
2023-02-16T06:24:29.605Z,72.30
2023-02-16T06:26:57.678Z,68.80
2023-02-16T06:29:25.650Z,68.60
2023-02-16T06:31:53.508Z,69.30
2023-02-16T06:34:21.544Z,69.10
2023-02-16T06:36:49.421Z,77.30
2023-02-16T06:39:17.339Z,77.40
2023-02-16T06:41:45.204Z,75.30
2023-02-16T06:44:15.380Z,81.00
2023-02-16T06:46:45.930Z,76.70
2023-02-16T06:49:18.206Z,76.20
2023-02-16T06:51:47.803Z,79.80
2023-02-16T06:54:16.543Z,80.30
2023-02-16T06:56:44.687Z,73.00
2023-02-16T06:59:13.545Z,77.60
2023-02-16T07:01:42.971Z,74.50
2023-02-16T07:04:12.183Z,71.30
2023-02-16T07:06:40.106Z,67.80
2023-02-16T07:09:08.247Z,72.10
2023-02-16T07:11:37.108Z,72.80
2023-02-16T07:14:05.008Z,70.70
2023-02-16T07:16:32.812Z,73.70
2023-02-16T07:19:00.752Z,74.50
2023-02-16T07:21:28.635Z,70.70
2023-02-16T07:23:56.570Z,73.90
2023-02-16T07:26:24.628Z,72.10
2023-02-16T07:28:52.740Z,70.90
2023-02-16T07:31:21.095Z,74.50
2023-02-16T07:33:49.273Z,68.20
2023-02-16T07:36:17.078Z,66.90
2023-02-16T07:38:45.210Z,66.50
2023-02-16T07:41:13.489Z,62.00
2023-02-16T07:43:42.989Z,66.30
2023-02-16T07:46:11.460Z,65.70
2023-02-16T07:48:39.788Z,67.70
2023-02-16T07:51:08.358Z,63.30
2023-02-16T07:53:36.380Z,65.90
2023-02-16T07:56:04.772Z,63.60
2023-02-16T07:58:32.838Z,66.50
2023-02-16T08:01:10.323Z,70.30
2023-02-16T08:03:39.119Z,67.00
2023-02-16T08:06:08.793Z,71.40
2023-02-16T08:08:38.061Z,64.30
2023-02-16T08:11:16.282Z,66.50
2023-02-16T08:13:45.838Z,66.20
2023-02-16T08:16:20.133Z,61.30
2023-02-16T08:18:48.695Z,65.40
2023-02-16T08:21:19.562Z,62.60
2023-02-16T08:23:54.220Z,63.70
2023-02-16T08:26:23.984Z,62.60
2023-02-16T08:28:52.922Z,58.20
2023-02-16T08:31:23.747Z,71.50
2023-02-16T08:33:53.841Z,69.40
2023-02-16T08:36:25.139Z,64.30
2023-02-16T08:38:54.576Z,63.50
2023-02-16T08:41:24.581Z,67.90
2023-02-16T08:43:52.432Z,59.60
2023-02-16T08:46:21.800Z,61.10
2023-02-16T08:48:49.692Z,61.70
2023-02-16T08:51:20.032Z,66.80
2023-02-16T08:53:47.839Z,62.70
2023-02-16T08:56:17.000Z,60.60
2023-02-16T08:58:44.948Z,58.60
2023-02-16T09:01:15.358Z,59.50
2023-02-16T09:03:46.385Z,57.20
2023-02-16T09:06:17.268Z,59.80
2023-02-16T09:08:46.689Z,62.00
2023-02-16T09:11:16.452Z,60.10
2023-02-16T09:13:45.083Z,62.80
2023-02-16T09:16:16.471Z,59.90
2023-02-16T09:18:45.606Z,56.20
2023-02-16T09:21:33.035Z,55.80
2023-02-16T09:24:05.355Z,55.70
2023-02-16T09:26:38.547Z,63.30
2023-02-16T09:29:07.327Z,59.50
2023-02-16T09:31:37.547Z,62.90
2023-02-16T09:34:18.501Z,57.30
2023-02-16T09:36:47.468Z,59.80
2023-02-16T09:39:17.176Z,56.90
2023-02-16T09:42:06.852Z,54.50
2023-02-16T09:44:56.748Z,55.70
2023-02-16T09:47:31.160Z,52.10
2023-02-16T09:50:06.452Z,52.80
2023-02-16T09:52:41.036Z,54.30
2023-02-16T09:55:18.169Z,52.60
2023-02-16T09:58:01.341Z,53.00
2023-02-16T10:00:46.942Z,58.60
2023-02-16T10:03:46.020Z,54.50
2023-02-16T10:06:14.810Z,52.90
2023-02-16T10:08:58.816Z,53.60
2023-02-16T10:11:39.104Z,56.10
2023-02-16T10:14:25.053Z,54.60
2023-02-16T10:17:15.418Z,51.20
2023-02-16T10:19:52.884Z,56.10
2023-02-16T10:22:29.246Z,52.00
2023-02-16T10:25:36.000Z,51.90
2023-02-16T10:28:18.242Z,46.90
2023-02-16T10:31:26.626Z,47.60
2023-02-16T10:34:26.737Z,49.40
2023-02-16T10:37:19.737Z,49.20
2023-02-16T10:40:06.229Z,46.00
2023-02-16T10:43:00.831Z,47.20
2023-02-16T10:45:52.726Z,41.80
2023-02-16T10:48:22.466Z,44.90
2023-02-16T10:51:09.342Z,45.30
2023-02-16T10:53:51.577Z,44.50
2023-02-16T10:56:42.926Z,45.70
2023-02-16T10:59:38.840Z,43.60
2023-02-16T11:04:59.731Z,44.90
2023-02-16T11:15:06.431Z,47.00
2023-02-16T11:18:05.053Z,47.40
2023-02-16T11:20:54.074Z,45.70
2023-02-16T11:23:28.207Z,49.30
2023-02-16T11:25:58.350Z,43.90
2023-02-16T11:28:32.331Z,45.30
2023-02-16T11:31:10.265Z,41.90
2023-02-16T11:33:40.472Z,41.20
2023-02-16T11:36:33.708Z,45.10
2023-02-16T11:39:15.620Z,43.80
2023-02-16T11:41:52.012Z,44.60
2023-02-16T11:44:31.942Z,44.70
2023-02-16T11:47:04.865Z,49.90
2023-02-16T11:49:42.258Z,51.40
2023-02-16T11:52:31.893Z,50.90
2023-02-16T11:55:02.208Z,47.40
2023-02-16T11:57:37.468Z,47.10
2023-02-16T12:00:18.426Z,53.00
2023-02-16T12:03:03.245Z,44.40
2023-02-16T12:05:54.870Z,47.10
2023-02-16T12:08:51.969Z,40.30
2023-02-16T12:12:17.553Z,40.20
2023-02-16T12:17:57.040Z,39.10
2023-02-16T12:20:39.981Z,40.60
2023-02-16T12:23:10.691Z,41.90
2023-02-16T12:25:58.959Z,43.20
2023-02-16T12:28:56.293Z,39.80
2023-02-16T12:31:56.763Z,40.10
2023-02-16T12:34:53.701Z,42.30
2023-02-16T12:37:33.837Z,39.40
2023-02-16T12:40:07.837Z,43.60
2023-02-16T12:42:57.132Z,42.20
2023-02-16T12:45:31.708Z,44.90
2023-02-16T12:48:34.101Z,43.00
2023-02-16T12:51:07.378Z,40.80
2023-02-16T12:54:00.351Z,49.40
2023-02-16T12:56:34.699Z,42.40
2023-02-16T12:59:16.757Z,41.00
2023-02-16T13:01:48.316Z,45.30
2023-02-16T13:04:20.104Z,52.90
2023-02-16T13:07:00.164Z,48.80
2023-02-16T13:09:44.725Z,45.40
2023-02-16T13:12:34.864Z,44.40
2023-02-16T13:15:06.688Z,45.10
2023-02-16T13:17:41.513Z,42.50
2023-02-16T13:20:16.819Z,46.10
2023-02-16T13:23:03.009Z,55.00
2023-02-16T13:25:53.511Z,48.40
2023-02-16T13:28:46.122Z,54.00
2023-02-16T13:31:23.401Z,55.40
2023-02-16T13:34:13.021Z,41.50
2023-02-16T13:36:55.318Z,40.20
2023-02-16T13:39:26.529Z,38.10
2023-02-16T13:42:23.867Z,41.30
2023-02-16T13:45:10.355Z,39.30
2023-02-16T13:47:41.057Z,45.50
2023-02-16T13:50:33.995Z,40.30
2023-02-16T13:53:19.034Z,41.40
2023-02-16T13:55:48.207Z,41.30
2023-02-16T13:58:16.296Z,42.50
2023-02-16T14:00:50.851Z,39.40
2023-02-16T14:03:21.706Z,38.30
2023-02-16T14:05:55.862Z,44.00
2023-02-16T14:08:25.580Z,42.80
2023-02-16T14:10:53.637Z,42.40
2023-02-16T14:13:31.321Z,43.60
2023-02-16T14:16:09.038Z,45.40
2023-02-16T14:18:41.076Z,42.50
2023-02-16T14:21:37.919Z,42.50
2023-02-16T14:24:12.680Z,43.40
2023-02-16T14:27:02.957Z,41.20
2023-02-16T14:29:59.441Z,38.80
2023-02-16T14:32:38.748Z,37.30
2023-02-16T14:35:17.164Z,35.90
2023-02-16T14:37:55.440Z,39.40
2023-02-16T14:40:53.504Z,38.60
2023-02-16T14:43:30.479Z,39.80
2023-02-16T14:46:26.466Z,39.40
2023-02-16T14:49:34.713Z,39.30
2023-02-16T14:53:04.593Z,41.30
2023-02-16T14:55:40.769Z,37.90
2023-02-16T14:58:30.683Z,40.70
2023-02-16T15:01:25.296Z,43.40
2023-02-16T15:03:55.680Z,40.80
2023-02-16T15:06:44.582Z,38.60
2023-02-16T15:09:20.768Z,46.00
2023-02-16T15:12:14.486Z,39.70
2023-02-16T15:14:48.502Z,40.20
2023-02-16T15:17:35.559Z,35.50
2023-02-16T15:20:31.743Z,35.90
2023-02-16T15:25:33.025Z,34.30
2023-02-16T15:28:22.593Z,35.70
2023-02-16T15:30:54.615Z,40.70
2023-02-16T15:33:25.446Z,38.40
2023-02-16T15:35:57.370Z,46.10
2023-02-16T15:38:38.218Z,59.50
2023-02-16T15:41:10.288Z,54.90
2023-02-16T15:43:47.768Z,49.80
2023-02-16T15:46:37.174Z,57.40
2023-02-16T15:49:22.471Z,60.70
2023-02-16T15:51:50.319Z,59.70
2023-02-16T15:54:28.811Z,59.70
2023-02-16T15:57:22.758Z,57.00
2023-02-16T15:59:57.180Z,52.80
2023-02-16T16:02:34.765Z,50.70
2023-02-16T16:05:06.482Z,48.00
2023-02-16T16:07:37.725Z,41.80
2023-02-16T16:10:28.679Z,41.70
2023-02-16T16:13:09.969Z,44.50
2023-02-16T16:15:45.070Z,41.60
2023-02-16T16:18:53.450Z,44.00
2023-02-16T16:21:24.089Z,42.50
2023-02-16T16:24:00.155Z,41.20
2023-02-16T16:26:31.787Z,40.10
2023-02-16T16:28:59.985Z,37.70
2023-02-16T16:31:28.258Z,38.90
2023-02-16T16:34:03.134Z,45.20
2023-02-16T16:36:44.847Z,38.70
2023-02-16T16:39:18.924Z,38.50
2023-02-16T16:42:07.830Z,34.70
2023-02-16T16:44:54.732Z,33.10
2023-02-16T16:47:25.336Z,35.90
2023-02-16T16:49:59.578Z,33.70
2023-02-16T16:52:34.608Z,34.20
2023-02-16T16:55:21.516Z,30.80
2023-02-16T16:57:54.948Z,33.90
2023-02-16T17:00:25.766Z,33.90
2023-02-16T17:02:54.041Z,32.10
2023-02-16T17:05:22.216Z,33.80
2023-02-16T17:07:51.993Z,31.40
2023-02-16T17:10:22.132Z,31.90
2023-02-16T17:12:56.757Z,33.40
2023-02-16T17:15:37.865Z,37.00
2023-02-16T17:18:07.304Z,37.30
2023-02-16T17:20:35.410Z,40.10
2023-02-16T17:23:05.054Z,38.30
2023-02-16T17:25:35.048Z,37.10
2023-02-16T17:28:03.822Z,36.00
2023-02-16T17:30:32.365Z,36.20
2023-02-16T17:33:00.465Z,37.50
2023-02-16T17:35:29.766Z,40.00
2023-02-16T17:37:57.630Z,33.60
2023-02-16T17:40:26.241Z,33.50
2023-02-16T17:42:54.148Z,29.70
2023-02-16T17:45:22.779Z,35.60
2023-02-16T17:47:53.090Z,32.50
2023-02-16T17:50:21.327Z,32.70
2023-02-16T17:52:49.385Z,37.60
2023-02-16T17:55:18.928Z,33.50
2023-02-16T17:57:46.888Z,35.90
2023-02-16T18:00:20.266Z,31.30
2023-02-16T18:02:48.365Z,35.30
2023-02-16T18:05:16.504Z,35.40
2023-02-16T18:07:44.729Z,36.80
2023-02-16T18:10:20.937Z,34.80
2023-02-16T18:12:49.082Z,34.20
2023-02-16T18:15:19.483Z,34.70
2023-02-16T18:17:47.478Z,34.80
2023-02-16T18:20:16.421Z,34.80
2023-02-16T18:22:44.540Z,30.50
2023-02-16T18:25:12.703Z,39.90
2023-02-16T18:27:40.799Z,38.90
2023-02-16T18:30:10.111Z,36.90
2023-02-16T18:32:38.268Z,41.10
2023-02-16T18:35:06.526Z,40.80
2023-02-16T18:37:35.315Z,43.60
2023-02-16T18:40:04.622Z,48.30
2023-02-16T18:42:33.229Z,50.30
2023-02-16T18:45:01.241Z,51.40
2023-02-16T18:47:29.439Z,51.50
2023-02-16T18:49:57.468Z,44.00
2023-02-16T18:52:25.583Z,43.70
2023-02-16T18:54:53.954Z,38.50
2023-02-16T18:57:22.804Z,38.70
2023-02-16T18:59:50.723Z,36.60
2023-02-16T19:02:18.681Z,45.70
2023-02-16T19:04:46.838Z,53.60
2023-02-16T19:07:15.148Z,49.70
2023-02-16T19:09:43.069Z,52.00
2023-02-16T19:12:10.944Z,41.90
2023-02-16T19:14:38.857Z,50.00
2023-02-16T19:17:06.861Z,49.50
2023-02-16T19:19:36.200Z,44.90
2023-02-16T19:22:04.271Z,39.80
2023-02-16T19:24:32.288Z,45.00
2023-02-16T19:27:00.251Z,49.80
2023-02-16T19:29:28.306Z,50.10
2023-02-16T19:38:08.483Z,73.30
2023-02-16T19:40:36.523Z,67.90
2023-02-16T19:43:04.688Z,74.80
2023-02-16T19:45:37.340Z,70.70
2023-02-16T19:48:05.667Z,71.80
2023-02-16T19:50:33.786Z,77.00
2023-02-16T19:53:01.713Z,66.70
2023-02-16T19:55:29.777Z,65.80
2023-02-16T19:57:57.690Z,58.00
2023-02-16T20:00:25.536Z,61.10
2023-02-16T20:02:53.740Z,59.50
2023-02-16T20:05:21.852Z,59.30
2023-02-16T20:07:49.673Z,59.20
2023-02-16T20:10:18.009Z,61.50
2023-02-16T20:12:45.970Z,59.80
2023-02-16T20:15:15.473Z,60.00
2023-02-16T20:17:43.353Z,61.50
2023-02-16T20:20:12.412Z,55.70
2023-02-16T20:22:40.271Z,58.70
2023-02-16T20:25:08.576Z,54.80
2023-02-16T20:27:36.958Z,59.40
2023-02-16T20:30:08.953Z,56.00
2023-02-16T20:32:37.272Z,59.80
2023-02-16T20:35:07.572Z,54.70
2023-02-16T20:37:35.626Z,55.80
2023-02-16T20:40:04.483Z,57.60
2023-02-16T20:42:32.557Z,65.70
2023-02-16T20:45:00.634Z,65.90
2023-02-16T20:47:28.643Z,68.20
2023-02-16T20:49:56.582Z,64.70
2023-02-16T20:52:24.650Z,70.20
2023-02-16T20:54:52.728Z,65.30
2023-02-16T20:57:26.752Z,60.20
2023-02-16T20:59:56.185Z,63.40
2023-02-16T21:02:24.744Z,67.10
2023-02-16T21:04:53.126Z,65.90
2023-02-16T21:07:23.511Z,65.90
2023-02-16T21:09:51.875Z,62.60
2023-02-16T21:12:19.758Z,59.60
2023-02-16T21:14:47.637Z,62.60
2023-02-16T21:17:15.797Z,55.40
2023-02-16T21:19:43.925Z,61.70
2023-02-16T21:22:11.880Z,60.00
2023-02-16T21:24:41.014Z,62.30
2023-02-16T21:27:10.140Z,57.10
2023-02-16T21:29:38.952Z,61.40
2023-02-16T21:32:07.225Z,61.40
2023-02-16T21:34:35.878Z,60.20
2023-02-16T21:37:04.409Z,61.30
2023-02-16T21:39:51.065Z,56.20
2023-02-16T21:42:19.098Z,52.60
2023-02-16T21:44:50.101Z,58.10
2023-02-16T21:47:36.980Z,60.60
2023-02-16T21:50:05.695Z,53.10
2023-02-16T21:52:33.521Z,50.70
2023-02-16T21:55:20.338Z,54.60
2023-02-16T21:57:49.532Z,49.10
2023-02-16T22:00:17.761Z,48.20
2023-02-16T22:02:45.991Z,52.80
2023-02-16T22:05:14.049Z,55.80
2023-02-16T22:07:42.191Z,54.20
2023-02-16T22:10:10.734Z,48.50
2023-02-16T22:12:38.685Z,49.50
2023-02-16T22:15:07.367Z,53.00
2023-02-16T22:17:35.437Z,53.80
2023-02-16T22:20:03.810Z,49.10
2023-02-16T22:22:31.819Z,53.10
2023-02-16T22:24:59.785Z,49.80
2023-02-16T22:27:27.707Z,52.60
2023-02-16T22:29:55.679Z,59.80
2023-02-16T22:32:23.710Z,56.30
2023-02-16T22:34:51.628Z,53.50
2023-02-16T22:37:19.597Z,57.90
2023-02-16T22:39:47.616Z,56.00
2023-02-16T22:42:15.552Z,56.80
2023-02-16T22:44:43.625Z,53.00
2023-02-16T22:47:11.566Z,56.00
2023-02-16T22:49:41.695Z,57.30
2023-02-16T22:52:11.542Z,56.30
2023-02-16T22:54:39.472Z,52.90
2023-02-16T22:57:07.501Z,51.10
2023-02-16T22:59:35.861Z,54.90
2023-02-16T23:02:03.893Z,51.40
2023-02-16T23:04:31.841Z,51.30
2023-02-16T23:06:59.839Z,55.30
2023-02-16T23:09:27.800Z,52.30
2023-02-16T23:11:55.773Z,56.70
2023-02-16T23:14:23.665Z,50.60
2023-02-16T23:16:54.652Z,56.10
2023-02-16T23:19:25.480Z,50.60
2023-02-16T23:21:54.533Z,52.90
2023-02-16T23:24:24.147Z,53.30
2023-02-16T23:26:53.124Z,48.00
2023-02-16T23:29:21.481Z,48.40
2023-02-16T23:31:50.386Z,48.40
2023-02-16T23:34:20.080Z,50.00
2023-02-16T23:36:48.425Z,53.00
2023-02-16T23:39:18.628Z,46.60
2023-02-16T23:41:46.989Z,49.40
2023-02-16T23:44:15.133Z,50.50
2023-02-16T23:46:42.966Z,49.30
2023-02-16T23:49:10.993Z,52.20
2023-02-16T23:51:38.987Z,53.20
2023-02-16T23:54:09.280Z,53.70
2023-02-16T23:56:37.113Z,51.50
2023-02-16T23:59:04.939Z,50.50
